Aérodrome :
LOGIN :

S'inscrire | Disclaimer

   EN    FR    IT 

 










Légende :    VFR   VFR Marginal   IFR   IFR Intensif   IFR Très Intensif
Visi : 
Plafond : 
>= 8 km
>= 3000ft
5 à 8 km
1000 à 3000 ft
1500m à 5 km
500 à 1000 ft
800 à 1500m
200 à 500 ft
< 800m
< 200 ft
Symboles :   Orages  Brouillard  Fortes neiges  Fortes précipitations  Vent > 20 kt
SIGMETs :   Divers  Orages  Givrage  Turbulence  Onde Orograph.  Cendres Volcan.






- Altitude de l'aérodrome : 154 ft
- Code IATA : PKV


ULOO - Pskov

DERNIER METAR :
  • 250800Z 28006MPS P5000 FEW033 03/M01 Q1000 R19/190060 NOSIG RMK QFE746

METARs EXPIRÉS :
  • 250730Z 27006MPS P5000 FEW033 03/M01 Q1000 R19/190060 NOSIG RMK QFE746
  • 250700Z 28005MPS 5000 SCT040 03/M01 Q0999 R19/190060 NOSIG RMK QFE745
  • 250630Z 27005MPS P5000 SCT040 03/M00 Q0999 R19/190060 NOSIG RMK QFE745
  • 250600Z 27005MPS P5000 SCT040 03/M00 Q0999 R19/190060 NOSIG RMK QFE745
  • 250530Z 26006MPS 5000 BKN040 03/M00 Q0999 R19/190060 NOSIG RMK QFE745

TAF TAF ULOO
Valide du 25 à 06h jusqu'au 25 à 15h UTC


250459Z 2506/2515 27006G11MPS 6000 BKN011 BKN020
TEMPO 2506/2509 3100 -SHRA BR BKN011 BKN017CB
BECMG 2508/2509 29007G13MPS
TEMPO 2509/2515 29009G16MPS 3100 -SHRASN BKN011 BKN018CB



MET'MAP, la Météo Aéronautique d'un coup d'oeil ! - Copyright ORBIFLY Décembre 2007 - Disclaimer

ORBIFLY MET'MAP TEAM :

Programmation & Développement : Alexandra Zaïnal
Sur une idée originale de : Baudouin d'Aumeries
Assistance à la programmation : Marc-Olivier Méhu
Soutien technique & logistique : Manuel Goepfert

Contact : metmap@orbifly.com




SOURCES & CREDITS :

   NOAA